Time;durP1;ratioP1;P1;durP2;ratioP2;P2;SDS_P1;SDS_P2;PMS_P1;PMS_P2;Temp;Humidity;BMP_temperature;BMP_pressure;BME280_temperature;BME280_humidity;BME280_pressure;Samples;Min_cycle;Max_cycle;Signal;HPM_P1;HPM_P2
2023/01/13 00:00:07;;;;;;;3.90;1.60;;;;;;;-128.00;-1.00;-1.00;263902;1274;1002856;-83
2023/01/13 00:06:45;;;;;;;3.40;1.50;;;;;;;-128.00;-1.00;-1.00;263778;1277;1002855;-82
2023/01/13 00:12:49;;;;;;;2.30;1.30;;;;;;;-128.00;-1.00;-1.00;263200;1275;1003549;-84
2023/01/13 00:18:51;;;;;;;3.20;1.60;;;;;;;-128.00;-1.00;-1.00;262914;1275;1002928;-81
2023/01/13 00:25:00;;;;;;;2.80;1.50;;;;;;;-128.00;-1.00;-1.00;262488;1276;1002500;-81
2023/01/13 00:31:08;;;;;;;3.00;1.40;;;;;;;-128.00;-1.00;-1.00;262514;1274;1002381;-83
2023/01/13 00:37:19;;;;;;;3.50;1.70;;;;;;;-128.00;-1.00;-1.00;262958;1275;1002001;-85
2023/01/13 00:43:22;;;;;;;3.10;1.30;;;;;;;-128.00;-1.00;-1.00;263381;1279;1002837;-82
2023/01/13 00:49:25;;;;;;;2.50;1.20;;;;;;;-128.00;-1.00;-1.00;262603;1279;1002934;-82
2023/01/13 00:55:31;;;;;;;2.30;1.20;;;;;;;-128.00;-1.00;-1.00;262760;1274;1005090;-81
2023/01/13 01:01:34;;;;;;;3.50;1.30;;;;;;;-128.00;-1.00;-1.00;262753;1276;1003772;-81
2023/01/13 01:07:37;;;;;;;2.60;1.10;;;;;;;-128.00;-1.00;-1.00;262911;1272;1003861;-83
2023/01/13 01:13:41;;;;;;;2.40;1.00;;;;;;;-128.00;-1.00;-1.00;262542;1274;1003956;-81
2023/01/13 01:19:44;;;;;;;1.50;1.40;;;;;;;-128.00;-1.00;-1.00;262473;1273;1002631;-82
2023/01/13 01:25:47;;;;;;;1.90;1.20;;;;;;;-128.00;-1.00;-1.00;262583;1279;1002503;-82
2023/01/13 01:31:50;;;;;;;3.00;1.40;;;;;;;-128.00;-1.00;-1.00;262399;1279;1003084;-83
2023/01/13 01:37:52;;;;;;;3.80;1.80;;;;;;;-128.00;-1.00;-1.00;262520;1279;1002038;-83
2023/01/13 01:43:58;;;;;;;3.60;1.40;;;;;;;-128.00;-1.00;-1.00;262554;1279;1004013;-81
2023/01/13 01:50:03;;;;;;;2.00;0.80;;;;;;;-128.00;-1.00;-1.00;262636;1274;1003982;-81
2023/01/13 01:56:08;;;;;;;1.50;1.00;;;;;;;-128.00;-1.00;-1.00;262863;1279;1002107;-82
2023/01/13 02:02:11;;;;;;;1.30;0.80;;;;;;;-128.00;-1.00;-1.00;262950;1274;1004432;-80
2023/01/13 02:08:16;;;;;;;2.40;1.00;;;;;;;-128.00;-1.00;-1.00;262248;1277;1002728;-82
2023/01/13 02:14:25;;;;;;;3.20;1.30;;;;;;;-128.00;-1.00;-1.00;262866;1275;1002342;-81
2023/01/13 02:20:47;;;;;;;2.50;1.30;;;;;;;-128.00;-1.00;-1.00;262688;1273;1002360;-81
2023/01/13 02:27:12;;;;;;;2.30;1.10;;;;;;;-128.00;-1.00;-1.00;263145;1279;1002827;-82
2023/01/13 02:33:40;;;;;;;2.80;1.10;;;;;;;-128.00;-1.00;-1.00;262696;1277;1003324;-83
2023/01/13 02:40:19;;;;;;;2.70;1.10;;;;;;;-128.00;-1.00;-1.00;262905;1279;1004124;-84
2023/01/13 02:46:57;;;;;;;2.80;1.00;;;;;;;-128.00;-1.00;-1.00;262487;1275;1003070;-85
2023/01/13 02:53:08;;;;;;;2.50;1.30;;;;;;;-128.00;-1.00;-1.00;262480;1273;1002705;-83
2023/01/13 02:59:11;;;;;;;2.30;1.20;;;;;;;-132.28;19.20;23824.43;263444;1277;1002445;-83
2023/01/13 03:05:16;;;;;;;3.10;0.90;;;;;;;-128.00;-1.00;-1.00;262659;1279;1002266;-85
2023/01/13 03:11:20;;;;;;;2.30;1.00;;;;;;;-128.00;-1.00;-1.00;263291;1279;1002485;-84
2023/01/13 03:17:33;;;;;;;1.90;1.00;;;;;;;-128.00;-1.00;-1.00;262993;1279;1002322;-84
2023/01/13 03:23:48;;;;;;;2.50;1.10;;;;;;;-128.00;-1.00;-1.00;262417;1279;1002461;-83
2023/01/13 03:29:57;;;;;;;2.10;1.00;;;;;;;-128.00;-1.00;-1.00;262925;1279;1002425;-84
2023/01/13 03:36:07;;;;;;;2.00;0.90;;;;;;;-128.00;-1.00;-1.00;262904;1275;1002620;-84
2023/01/13 03:42:16;;;;;;;1.30;0.70;;;;;;;-128.00;-1.00;-1.00;262985;1276;1002767;-83
2023/01/13 03:48:21;;;;;;;2.20;0.90;;;;;;;-128.00;-1.00;-1.00;262689;1279;1002691;-84
2023/01/13 03:54:27;;;;;;;2.80;0.80;;;;;;;-128.00;-1.00;-1.00;262514;1279;1002688;-83
2023/01/13 04:00:37;;;;;;;2.10;0.80;;;;;;;-128.00;-1.00;-1.00;262714;1279;1003017;-83
2023/01/13 04:07:00;;;;;;;1.90;0.90;;;;;;;-128.00;-1.00;-1.00;262629;1279;1003089;-83
2023/01/13 04:13:11;;;;;;;1.80;0.90;;;;;;;-128.00;-1.00;-1.00;262358;1274;1002792;-83
2023/01/13 04:19:14;;;;;;;1.30;0.80;;;;;;;-128.00;-1.00;-1.00;263057;1275;1002638;-83
2023/01/13 04:25:26;;;;;;;3.60;0.90;;;;;;;-128.00;-1.00;-1.00;263293;1274;1002463;-84
2023/01/13 04:31:29;;;;;;;1.40;0.70;;;;;;;-128.00;-1.00;-1.00;263733;1279;1002249;-84
2023/01/13 04:37:32;;;;;;;1.60;0.90;;;;;;;-128.00;-1.00;-1.00;263805;1279;1002468;-84
2023/01/13 04:43:35;;;;;;;1.90;0.90;;;;;;;-128.00;-1.00;-1.00;263660;1276;1002477;-83
2023/01/13 04:49:40;;;;;;;2.10;0.90;;;;;;;-128.00;-1.00;-1.00;263817;1277;1002661;-83
2023/01/13 04:55:43;;;;;;;1.70;0.80;;;;;;;-128.00;-1.00;-1.00;264150;1279;1002375;-84
2023/01/13 05:01:51;;;;;;;3.70;1.20;;;;;;;-128.00;-1.00;-1.00;263565;1277;1002816;-85
2023/01/13 05:07:54;;;;;;;3.40;1.50;;;;;;;-128.00;-1.00;-1.00;264179;1277;1002293;-85
2023/01/13 05:20:19;;;;;;;2.20;1.10;;;;;;;-128.00;-1.00;-1.00;263897;1273;1002691;-82
2023/01/13 05:26:31;;;;;;;1.50;0.90;;;;;;;-128.00;-1.00;-1.00;263688;1278;1002037;-82
2023/01/13 05:32:34;;;;;;;1.40;0.70;;;;;;;-128.00;-1.00;-1.00;263747;1278;1002531;-84
2023/01/13 05:38:37;;;;;;;1.70;0.80;;;;;;;-128.00;-1.00;-1.00;263542;1279;1002439;-82
2023/01/13 05:44:40;;;;;;;2.00;0.90;;;;;;;-128.00;-1.00;-1.00;263042;1277;1003483;-83
2023/01/13 05:50:50;;;;;;;2.60;1.00;;;;;;;-128.00;-1.00;-1.00;263444;1273;1002714;-85
2023/01/13 05:56:53;;;;;;;1.50;0.70;;;;;;;-128.00;-1.00;-1.00;263815;1279;1002326;-86
2023/01/13 06:02:56;;;;;;;2.80;1.10;;;;;;;-128.00;-1.00;-1.00;263609;1280;1002288;-86
2023/01/13 06:08:59;;;;;;;3.30;0.70;;;;;;;-128.00;-1.00;-1.00;263007;1280;1003608;-83
2023/01/13 06:15:02;;;;;;;1.90;1.00;;;;;;;-128.00;-1.00;-1.00;262326;1276;1003040;-83
2023/01/13 06:21:05;;;;;;;1.60;0.80;;;;;;;11.57;80.35;98797.64;266246;1279;22536;-82
2023/01/13 06:27:08;;;;;;;1.60;1.10;;;;;;;11.55;79.85;98799.17;266119;1279;22793;-84
2023/01/13 06:33:14;;;;;;;2.70;1.10;;;;;;;11.63;79.06;98803.02;266174;1276;22567;-84
2023/01/13 06:39:20;;;;;;;2.70;1.00;;;;;;;-84.97;91.55;110998.41;266262;1280;25049;-83
2023/01/13 06:45:28;;;;;;;2.50;1.10;;;;;;;11.70;78.25;98805.35;266494;1279;22642;-86
2023/01/13 06:51:33;;;;;;;3.10;1.10;;;;;;;11.78;77.85;98800.99;267670;1279;23768;-85
2023/01/13 06:57:48;;;;;;;1.50;1.10;;;;;;;11.78;77.52;98802.77;267218;1279;22516;-87
2023/01/13 07:03:51;;;;;;;2.20;1.20;;;;;;;11.66;77.37;98803.77;267886;1280;24018;-90
2023/01/13 07:09:54;;;;;;;1.60;0.90;;;;;;;11.77;76.49;98805.69;268118;1279;22540;-88
2023/01/13 07:16:02;;;;;;;1.20;0.90;;;;;;;11.84;75.72;98810.64;268162;1279;25397;-86
2023/01/13 07:22:07;;;;;;;2.60;1.30;;;;;;;11.89;75.34;98810.98;268041;1280;22909;-88
2023/01/13 07:28:14;;;;;;;2.00;1.10;;;;;;;12.04;74.54;98801.69;267807;1279;22691;-87
2023/01/13 07:34:17;;;;;;;2.80;1.10;;;;;;;12.23;73.86;98802.02;267615;1276;22741;-88
2023/01/13 07:40:20;;;;;;;2.70;1.10;;;;;;;12.29;73.07;98802.60;267493;1279;22589;-84
2023/01/13 07:46:23;;;;;;;1.60;0.80;;;;;;;12.25;72.82;98803.73;266874;1279;25369;-85
2023/01/13 07:52:26;;;;;;;2.70;1.50;;;;;;;12.51;71.97;98802.95;267747;1280;22594;-85
2023/01/13 07:58:29;;;;;;;3.80;1.60;;;;;;;12.61;71.36;98803.67;267940;1279;22613;-86
2023/01/13 08:04:32;;;;;;;2.60;1.50;;;;;;;12.62;71.22;98802.97;267067;1273;25574;-85
2023/01/13 08:10:36;;;;;;;3.80;1.50;;;;;;;12.73;70.59;98801.49;266746;1273;22656;-85
2023/01/13 08:16:39;;;;;;;3.20;1.60;;;;;;;12.94;69.91;98792.41;266868;1276;25293;-86
2023/01/13 08:22:43;;;;;;;4.40;1.40;;;;;;;13.13;69.07;98793.30;267245;1279;24336;-84
2023/01/13 08:28:46;;;;;;;3.10;1.50;;;;;;;13.20;68.56;98791.10;267358;1279;22532;-85
2023/01/13 08:34:49;;;;;;;2.50;1.50;;;;;;;13.31;68.03;98796.93;266457;1279;23929;-85
2023/01/13 08:40:57;;;;;;;2.80;1.30;;;;;;;13.43;67.48;98791.24;266480;1276;22805;-85
2023/01/13 08:47:03;;;;;;;3.30;1.50;;;;;;;13.66;66.65;98791.61;266995;1277;25369;-87
2023/01/13 08:53:06;;;;;;;3.40;1.40;;;;;;;13.86;66.05;98794.73;266568;1280;25370;-87
2023/01/13 08:59:14;;;;;;;3.50;1.30;;;;;;;13.91;65.54;98790.61;267301;1279;26339;-87
2023/01/13 09:05:17;;;;;;;2.80;1.50;;;;;;;14.19;64.98;98790.69;266931;1258;24333;-85
2023/01/13 09:17:49;;;;;;;2.70;1.20;;;;;;;14.48;63.86;98790.47;267757;1273;24209;-86
2023/01/13 09:23:52;;;;;;;3.10;1.20;;;;;;;14.54;63.30;98791.54;267350;1280;25485;-85
2023/01/13 09:29:55;;;;;;;2.60;1.30;;;;;;;14.72;62.55;98783.76;267286;1279;25489;-86
2023/01/13 09:35:59;;;;;;;3.40;1.40;;;;;;;14.87;62.18;98781.72;267310;1270;22547;-84
2023/01/13 09:48:50;;;;;;;4.60;1.60;;;;;;;14.79;62.02;98776.56;267762;1273;22577;-84
2023/01/13 09:55:13;;;;;;;1.80;1.20;;;;;;;15.18;61.35;98776.23;266719;1277;24211;-85
2023/01/13 10:01:31;;;;;;;2.80;1.20;;;;;;;15.41;60.56;98772.95;266421;1279;26636;-86
2023/01/13 10:07:39;;;;;;;1.40;0.90;;;;;;;15.51;60.67;98767.42;267196;1273;22544;-86
2023/01/13 10:13:42;;;;;;;2.90;1.00;;;;;;;15.62;60.24;98755.02;266950;1274;22658;-87
2023/01/13 10:20:23;;;;;;;1.90;1.00;;;;;;;15.85;59.45;98753.19;266459;1259;24213;-86
2023/01/13 10:26:40;;;;;;;4.30;1.00;;;;;;;15.97;58.69;98746.49;266707;1277;22550;-86
2023/01/13 10:32:46;;;;;;;1.90;1.00;;;;;;;16.24;58.09;98746.50;267144;1279;22793;-87
2023/01/13 10:38:50;;;;;;;2.10;1.10;;;;;;;16.52;57.95;98747.50;268227;1279;22707;-87
2023/01/13 10:44:59;;;;;;;2.80;1.50;;;;;;;16.46;57.94;98733.84;267756;1279;22603;-86
2023/01/13 10:51:24;;;;;;;3.00;1.40;;;;;;;16.31;57.52;98723.26;266456;1279;22753;-85
2023/01/13 10:57:27;;;;;;;2.20;1.10;;;;;;;16.42;57.47;98712.52;267499;1279;22719;-85
2023/01/13 11:03:39;;;;;;;2.60;1.20;;;;;;;16.51;56.85;98707.71;267284;1277;22623;-85
2023/01/13 11:09:42;;;;;;;3.80;1.00;;;;;;;16.71;56.47;98704.58;267260;1279;22567;-86
2023/01/13 11:16:04;;;;;;;2.20;1.10;;;;;;;16.60;56.35;98700.73;267125;1279;22587;-85
2023/01/13 11:22:18;;;;;;;2.20;0.80;;;;;;;16.63;56.23;98691.97;266991;1279;22575;-84
2023/01/13 11:28:45;;;;;;;2.60;0.90;;;;;;;16.64;55.74;98682.73;269326;1280;22742;-87
2023/01/13 11:34:53;;;;;;;2.30;0.90;;;;;;;16.54;55.78;98676.23;267707;1279;22542;-88
2023/01/13 11:41:04;;;;;;;2.40;0.90;;;;;;;16.68;55.81;98674.52;266916;1279;22540;-87
2023/01/13 11:47:09;;;;;;;2.40;1.00;;;;;;;16.69;55.64;98670.55;267183;1276;23890;-89
2023/01/13 11:53:15;;;;;;;2.20;0.90;;;;;;;16.81;55.51;98672.59;267363;1279;22677;-85
2023/01/13 11:59:44;;;;;;;1.90;1.20;;;;;;;16.64;55.67;98670.56;268721;1279;22556;-92
2023/01/13 12:06:10;;;;;;;2.60;1.30;;;;;;;16.84;55.26;98666.55;266080;1279;132200;-88
2023/01/13 12:12:43;;;;;;;1.60;0.90;;;;;;;16.70;55.43;98655.40;266588;1279;25260;-87
2023/01/13 12:19:03;;;;;;;2.80;1.10;;;;;;;16.80;55.37;98652.62;266827;1279;24345;-88
2023/01/13 12:25:31;;;;;;;2.30;0.90;;;;;;;16.81;55.29;98656.30;266805;1279;22595;-88
2023/01/13 12:31:36;;;;;;;2.50;1.10;;;;;;;16.97;55.19;98657.52;266212;1279;22677;-90
2023/01/13 12:38:11;;;;;;;4.00;1.10;;;;;;;16.94;55.25;98659.53;266290;1277;22746;-91
2023/01/13 12:44:16;;;;;;;2.60;1.10;;;;;;;17.01;55.14;98651.67;268686;1277;22640;-90
2023/01/13 12:50:22;;;;;;;2.10;1.00;;;;;;;17.03;55.12;98648.56;269116;1274;22547;-91
2023/01/13 12:56:46;;;;;;;3.50;1.30;;;;;;;16.86;55.12;98646.19;267520;1279;22680;-87
2023/01/13 13:03:11;;;;;;;3.70;1.10;;;;;;;16.78;55.13;98646.16;267496;1279;24048;-88
2023/01/13 13:09:25;;;;;;;2.90;1.20;;;;;;;16.70;55.48;98649.15;266442;1273;22692;-87
2023/01/13 13:15:32;;;;;;;3.00;1.10;;;;;;;16.71;55.60;98650.94;267332;1279;22547;-88
2023/01/13 13:22:13;;;;;;;3.60;1.40;;;;;;;16.64;55.84;98660.59;266677;1279;25510;-89
2023/01/13 13:28:18;;;;;;;4.60;1.60;;;;;;;16.54;56.12;98660.42;266566;1279;25321;-89
2023/01/13 13:34:33;;;;;;;3.80;1.40;;;;;;;16.45;56.50;98663.14;267299;1279;24342;-90
2023/01/13 13:47:07;;;;;;;5.10;1.50;;;;;;;16.31;56.50;98664.23;267391;1279;22746;-86
2023/01/13 13:53:10;;;;;;;2.30;1.40;;;;;;;16.12;56.18;98670.00;267624;1279;25234;-88
2023/01/13 13:59:20;;;;;;;2.00;1.30;;;;;;;15.95;56.34;98673.68;268199;1264;24209;-87
2023/01/13 14:05:53;;;;;;;3.40;1.40;;;;;;;15.97;56.26;98677.58;267805;1279;22584;-86
2023/01/13 14:12:07;;;;;;;5.70;1.50;;;;;;;15.91;56.49;98682.36;268443;1279;22547;-87
2023/01/13 14:18:20;;;;;;;4.20;1.40;;;;;;;15.87;56.95;98689.05;267785;1276;23308;-87
2023/01/13 14:24:24;;;;;;;2.40;1.20;;;;;;;15.79;57.20;98690.23;267876;1279;22627;-87
2023/01/13 14:30:27;;;;;;;4.80;1.50;;;;;;;15.85;56.83;98690.02;267432;1277;22600;-87
2023/01/13 14:36:36;;;;;;;3.00;1.50;;;;;;;15.66;56.87;98696.60;267250;1273;22582;-87
2023/01/13 14:42:39;;;;;;;2.30;1.10;;;;;;;15.63;56.97;98703.91;267410;1276;23234;-87
2023/01/13 14:48:46;;;;;;;4.00;1.70;;;;;;;15.50;57.10;98703.28;267262;1279;22618;-87
2023/01/13 14:54:56;;;;;;;4.20;1.70;;;;;;;15.54;57.13;98704.41;267161;1279;22611;-87
2023/01/13 15:01:46;;;;;;;3.90;1.80;;;;;;;15.41;57.35;98708.00;267530;1274;22651;-88
2023/01/13 15:08:16;;;;;;;3.70;1.70;;;;;;;15.38;57.34;98708.91;267408;1273;24315;-89
2023/01/13 15:14:28;;;;;;;3.10;1.90;;;;;;;15.12;58.52;98708.23;267428;1279;22581;-85
2023/01/13 15:20:31;;;;;;;4.60;1.70;;;;;;;15.26;58.10;98706.48;267017;1279;22698;-89
2023/01/13 15:26:35;;;;;;;3.40;1.80;;;;;;;15.14;58.36;98708.91;267089;1274;22535;-87
2023/01/13 15:32:38;;;;;;;3.60;1.90;;;;;;;15.00;58.48;98717.40;267373;1279;24245;-89
2023/01/13 15:38:42;;;;;;;3.50;2.10;;;;;;;15.08;58.31;98714.27;266152;1279;24553;-89
2023/01/13 15:51:09;;;;;;;4.00;2.00;;;;;;;15.13;58.09;98716.28;266711;1279;25122;-89
2023/01/13 15:57:25;;;;;;;3.60;2.10;;;;;;;15.12;58.13;98716.33;266700;1279;24202;-90
2023/01/13 16:03:28;;;;;;;3.90;1.90;;;;;;;14.99;58.20;98719.55;266717;1274;22582;-90
2023/01/13 16:09:34;;;;;;;3.80;2.10;;;;;;;14.82;58.53;98721.24;268723;1279;22573;-92
2023/01/13 16:15:42;;;;;;;4.00;1.80;;;;;;;14.73;58.72;98723.48;267526;1279;22563;-90
2023/01/13 16:21:48;;;;;;;6.10;1.90;;;;;;;14.86;58.47;98727.48;266560;1279;25314;-86
2023/01/13 16:27:52;;;;;;;4.30;2.00;;;;;;;14.71;58.55;98736.91;268295;1279;22645;-92
2023/01/13 16:33:58;;;;;;;6.80;2.50;;;;;;;14.71;58.53;98742.48;268938;1279;26627;-92
2023/01/13 16:40:02;;;;;;;5.20;2.70;;;;;;;14.67;58.64;98744.17;268279;1277;22543;-91
2023/01/13 16:46:25;;;;;;;5.20;2.60;;;;;;;14.55;58.81;98750.20;267774;1279;23309;-88
2023/01/13 16:52:30;;;;;;;5.60;2.70;;;;;;;14.45;58.96;98754.59;266083;1279;22583;-89
2023/01/13 16:58:36;;;;;;;6.50;3.20;;;;;;;14.34;59.37;98750.92;266395;1275;22543;-87
2023/01/13 17:04:39;;;;;;;6.70;2.70;;;;;;;14.09;60.07;98751.90;266495;1279;22542;-86
2023/01/13 17:10:47;;;;;;;5.90;2.80;;;;;;;14.06;60.86;98751.90;266536;1279;22536;-86
2023/01/13 17:16:54;;;;;;;7.00;2.90;;;;;;;14.16;60.68;98762.77;266667;1275;23364;-86
2023/01/13 17:22:58;;;;;;;;;;;;;;;14.20;60.78;98768.41;266209;1279;24395;-86
2023/01/13 17:29:07;;;;;;;6.30;3.10;;;;;;;14.19;61.02;98766.56;266410;1258;24239;-86
2023/01/13 17:35:14;;;;;;;6.30;3.00;;;;;;;14.24;61.06;98762.98;266918;1274;22572;-87
2023/01/13 17:41:25;;;;;;;8.00;3.40;;;;;;;14.23;61.13;98756.59;266557;1279;22611;-83
2023/01/13 17:47:45;;;;;;;7.90;3.30;;;;;;;14.20;61.30;98756.91;267721;1279;24376;-86
2023/01/13 17:53:49;;;;;;;6.40;2.90;;;;;;;14.16;61.60;98761.30;268052;1279;22623;-84
2023/01/13 17:59:58;;;;;;;5.50;2.80;;;;;;;14.14;61.79;98766.70;267794;1279;23434;-83
2023/01/13 18:06:03;;;;;;;6.30;2.90;;;;;;;14.11;61.90;98769.44;268293;1279;22656;-83
2023/01/13 18:12:06;;;;;;;5.50;2.80;;;;;;;13.95;62.31;98768.43;267779;1279;22568;-83
2023/01/13 18:18:09;;;;;;;6.60;2.80;;;;;;;14.15;61.82;98767.03;267964;1279;22582;-84
2023/01/13 18:30:38;;;;;;;6.50;3.20;;;;;;;14.06;62.18;98776.17;268080;1279;22583;-83
2023/01/13 18:36:41;;;;;;;6.00;2.90;;;;;;;14.11;62.10;98772.53;267913;1274;22591;-83
2023/01/13 18:42:50;;;;;;;7.00;3.20;;;;;;;14.06;62.22;98782.66;268389;1276;22574;-82
2023/01/13 18:48:53;;;;;;;7.50;3.50;;;;;;;14.01;62.42;98785.70;268034;1274;25842;-82
2023/01/13 18:54:58;;;;;;;9.30;3.70;;;;;;;14.16;62.18;98788.20;268000;1260;24332;-83
2023/01/13 19:01:09;;;;;;;6.80;3.60;;;;;;;14.21;62.08;98786.48;267816;1279;22532;-87
2023/01/13 19:07:21;;;;;;;8.90;3.40;;;;;;;14.15;62.23;98785.20;267713;1279;22568;-84
2023/01/13 19:13:25;;;;;;;6.80;3.00;;;;;;;14.11;62.31;98796.91;267707;1279;22585;-83
2023/01/13 19:19:28;;;;;;;6.40;3.20;;;;;;;14.26;62.28;98807.65;267991;1271;25253;-85
2023/01/13 19:25:34;;;;;;;5.60;3.00;;;;;;;14.18;63.19;98819.77;268432;1279;24469;-84
2023/01/13 19:31:37;;;;;;;6.80;3.20;;;;;;;14.29;63.99;98826.22;268323;1274;22143;-81
2023/01/13 19:37:42;;;;;;;7.60;3.50;;;;;;;14.33;64.98;98836.80;268019;1279;22640;-82
2023/01/13 19:50:08;;;;;;;6.70;3.10;;;;;;;13.96;68.47;98870.48;266629;1262;24296;-83
2023/01/13 19:56:13;;;;;;;6.70;3.00;;;;;;;13.77;70.56;98886.10;267035;1277;22575;-83
2023/01/13 20:02:26;;;;;;;5.90;2.90;;;;;;;13.52;73.88;98895.78;267179;1258;23139;-88
2023/01/13 20:08:34;;;;;;;5.30;3.00;;;;;;;13.41;80.39;98910.69;267080;1275;22564;-88
2023/01/13 20:14:37;;;;;;;6.10;2.80;;;;;;;13.41;86.65;98913.97;267381;1279;24259;-85
2023/01/13 20:20:40;;;;;;;7.00;2.90;;;;;;;13.35;90.37;98915.58;266639;1280;24462;-85
2023/01/13 20:26:44;;;;;;;6.70;3.20;;;;;;;13.13;96.70;98916.16;266764;1280;24186;-86
2023/01/13 20:32:48;;;;;;;5.60;3.20;;;;;;;13.22;98.87;98928.48;266500;1279;23179;-84
2023/01/13 20:38:59;;;;;;;6.60;2.90;;;;;;;13.21;99.99;98932.14;266747;1279;23436;-88
2023/01/13 20:45:04;;;;;;;4.60;2.70;;;;;;;13.20;100.00;98938.50;266400;1274;25459;-87
2023/01/13 20:51:09;;;;;;;5.70;2.80;;;;;;;13.23;100.00;98952.10;266024;1259;24945;-85
2023/01/13 20:57:15;;;;;;;8.30;3.40;;;;;;;13.17;99.71;98967.73;265968;1280;22556;-85
2023/01/13 21:03:22;;;;;;;6.40;3.40;;;;;;;13.06;100.00;98976.59;267216;1279;24211;-87
2023/01/13 21:09:26;;;;;;;5.60;3.50;;;;;;;12.94;100.00;98978.26;266755;1279;23426;-86
2023/01/13 21:15:29;;;;;;;5.50;3.20;;;;;;;13.01;100.00;98984.90;266595;1279;24481;-82
2023/01/13 21:21:34;;;;;;;7.80;3.30;;;;;;;12.62;100.00;98994.30;266103;1277;24776;-82
2023/01/13 21:27:37;;;;;;;5.20;3.40;;;;;;;12.69;100.00;98990.73;266543;1277;22651;-85
2023/01/13 21:33:43;;;;;;;6.10;3.40;;;;;;;12.67;100.00;98994.48;266298;1277;22674;-85
2023/01/13 21:39:47;;;;;;;5.20;3.00;;;;;;;12.75;100.00;98999.03;266661;1279;22695;-84
2023/01/13 21:52:24;;;;;;;5.50;3.10;;;;;;;12.69;100.00;99014.15;267367;1270;22542;-88
2023/01/13 21:58:29;;;;;;;4.60;2.90;;;;;;;12.57;100.00;99018.21;267518;1277;25356;-87
2023/01/13 22:04:35;;;;;;;6.00;3.10;;;;;;;12.46;99.92;99015.83;267507;1279;22582;-89
2023/01/13 22:10:59;;;;;;;;;;;;;;;12.52;98.47;99013.73;267270;1279;22546;-85
2023/01/13 22:17:02;;;;;;;2.80;1.70;;;;;;;12.10;98.12;99004.77;267524;1279;22543;-85
2023/01/13 22:23:08;;;;;;;2.70;1.50;;;;;;;12.02;97.43;99007.14;267307;1279;22594;-84
2023/01/13 22:29:14;;;;;;;2.80;1.50;;;;;;;12.06;94.90;99013.35;267223;1277;22549;-87
2023/01/13 22:35:23;;;;;;;2.40;1.50;;;;;;;12.14;91.63;99016.84;267316;1277;22564;-88
2023/01/13 22:41:26;;;;;;;3.60;1.40;;;;;;;12.02;91.80;99023.10;266729;1280;23916;-87
2023/01/13 22:47:32;;;;;;;2.80;1.60;;;;;;;12.00;91.16;99027.85;266533;1279;23012;-85
2023/01/13 22:53:41;;;;;;;3.00;1.60;;;;;;;11.97;90.77;99028.73;266805;1279;22597;-86
2023/01/13 22:59:49;;;;;;;3.00;1.70;;;;;;;11.84;92.80;99032.16;266763;1279;24215;-86
2023/01/13 23:06:07;;;;;;;3.90;1.90;;;;;;;11.69;95.06;99027.92;267025;1279;22631;-87
2023/01/13 23:12:13;;;;;;;3.60;2.30;;;;;;;11.52;96.93;99033.18;267195;1279;24797;-89
2023/01/13 23:18:19;;;;;;;2.30;1.60;;;;;;;11.56;96.03;99040.48;266906;1279;22548;-84
2023/01/13 23:24:24;;;;;;;3.30;1.70;;;;;;;11.16;98.51;99040.66;266845;1277;22590;-86
2023/01/13 23:30:33;;;;;;;3.30;1.80;;;;;;;10.93;100.00;99040.16;266638;1279;24390;-85
2023/01/13 23:36:42;;;;;;;2.50;1.50;;;;;;;10.84;100.00;99038.45;266774;1279;22586;-90
2023/01/13 23:42:45;;;;;;;2.70;1.70;;;;;;;10.80;100.00;99039.13;266605;1279;25307;-85
2023/01/13 23:48:49;;;;;;;3.90;1.90;;;;;;;10.55;100.00;99045.55;266682;1279;22556;-83
2023/01/13 23:54:53;;;;;;;2.70;1.90;;;;;;;10.51;100.00;99048.77;266350;1279;24209;-83
